Weather at South Lafourche Leonard Miller Jr Airport

Public forecast

Using degrees Fahrenheit for public forecast. Weather courtesy of forecast.io.

Current aviation weather report (METAR) for South Lafourche Leonard Miller Jr Airport

Report is more than 2 hours old.

Retrieved 2022/08/16 16:40 UTC (3 hours ago):

KGAO 161640Z AUTO 29003KT 10SM SCT026 SCT030 33/25 A2999 RMK AO2 T03250246

Closest aviation forecast (TAF) to South Lafourche Leonard Miller Jr Airport

Closest forecast is Houma Terrebonne Airport, 22.1 nm (40.9 km) WNW. Retrieved 2022/08/16 18:40 UTC (46 minutes ago):

TAF KHUM 161738Z 1618/1718 27005KT P6SM SCT030 SCT250 FM170300 VRB03KT P6SM FEW250 FM171600 28006KT P6SM SCT070 SCT250